createdAt,value
2022-11-01T00:01:26.683Z,13.07
2022-11-01T00:03:53.399Z,13.04
2022-11-01T00:06:19.985Z,13.02
2022-11-01T00:08:46.708Z,13.08
2022-11-01T00:11:16.319Z,13.06
2022-11-01T00:13:45.841Z,13.04
2022-11-01T00:16:13.530Z,13.01
2022-11-01T00:18:40.573Z,13.07
2022-11-01T00:21:07.242Z,13.08
2022-11-01T00:23:34.073Z,13.08
2022-11-01T00:26:01.801Z,13.09
2022-11-01T00:28:29.326Z,13.02
2022-11-01T00:30:57.503Z,13.01
2022-11-01T00:33:25.355Z,13.04
2022-11-01T00:35:52.633Z,12.99
2022-11-01T00:38:19.651Z,13.03
2022-11-01T00:40:46.445Z,12.90
2022-11-01T00:43:13.522Z,12.97
2022-11-01T00:45:42.586Z,12.88
2022-11-01T00:48:09.343Z,12.94
2022-11-01T00:50:36.208Z,12.96
2022-11-01T00:53:03.045Z,13.02
2022-11-01T00:55:29.837Z,12.95
2022-11-01T00:57:56.797Z,12.90
2022-11-01T01:00:24.212Z,12.92
2022-11-01T01:02:51.088Z,12.91
2022-11-01T01:05:18.552Z,12.87
2022-11-01T01:07:45.506Z,12.85
2022-11-01T01:10:12.850Z,12.85
2022-11-01T01:12:39.984Z,12.87
2022-11-01T01:15:08.132Z,12.89
2022-11-01T01:17:34.995Z,12.82
2022-11-01T01:20:01.987Z,12.86
2022-11-01T01:22:28.886Z,12.87
2022-11-01T01:24:56.031Z,12.91
2022-11-01T01:27:22.689Z,12.92
2022-11-01T01:29:49.489Z,12.94
2022-11-01T01:32:18.964Z,12.91
2022-11-01T01:34:45.934Z,12.95
2022-11-01T01:37:15.101Z,12.91
2022-11-01T01:39:42.019Z,12.92
2022-11-01T01:42:28.434Z,12.91
2022-11-01T01:44:55.170Z,12.87
2022-11-01T01:47:28.278Z,12.94
2022-11-01T01:50:12.142Z,12.93
2022-11-01T01:52:50.246Z,12.93
2022-11-01T01:55:22.083Z,12.94
2022-11-01T01:57:49.778Z,12.94
2022-11-01T02:00:16.996Z,12.88
2022-11-01T02:02:43.901Z,12.87
2022-11-01T02:05:18.264Z,12.91
2022-11-01T02:07:45.715Z,12.91
2022-11-01T02:10:14.716Z,12.88
2022-11-01T02:12:47.196Z,12.86
2022-11-01T02:15:14.816Z,12.90
2022-11-01T02:17:44.627Z,12.86
2022-11-01T02:20:21.024Z,12.84
2022-11-01T02:23:19.215Z,12.85
2022-11-01T02:25:58.046Z,12.80
2022-11-01T02:28:33.773Z,12.85
2022-11-01T02:31:35.527Z,12.90
2022-11-01T02:34:12.709Z,12.89
2022-11-01T02:36:48.389Z,12.86
2022-11-01T02:39:26.772Z,12.84
2022-11-01T02:42:04.017Z,12.86
2022-11-01T02:44:37.570Z,12.89
2022-11-01T02:47:05.997Z,12.92
2022-11-01T02:49:39.840Z,12.89
2022-11-01T02:52:09.040Z,12.91
2022-11-01T02:54:42.668Z,12.88
2022-11-01T02:57:44.103Z,12.92
2022-11-01T03:00:20.835Z,12.90
2022-11-01T03:02:50.993Z,12.88
2022-11-01T03:05:26.908Z,12.81
2022-11-01T03:08:02.344Z,12.84
2022-11-01T03:10:43.306Z,12.89
2022-11-01T03:13:17.530Z,12.77
2022-11-01T03:15:57.051Z,12.81
2022-11-01T03:18:32.312Z,12.88
2022-11-01T03:21:15.552Z,12.86
2022-11-01T03:24:38.137Z,12.88
2022-11-01T03:27:10.752Z,12.89
2022-11-01T03:29:38.940Z,12.92
2022-11-01T03:32:07.575Z,12.90
2022-11-01T03:34:36.930Z,12.91
2022-11-01T03:37:07.694Z,12.90
2022-11-01T03:39:47.929Z,12.88
2022-11-01T03:42:21.784Z,12.87
2022-11-01T03:44:56.038Z,12.93
2022-11-01T03:47:22.788Z,12.86
2022-11-01T03:50:12.861Z,12.85
2022-11-01T03:52:39.646Z,12.88
2022-11-01T03:55:18.154Z,12.87
2022-11-01T03:57:56.023Z,12.92
2022-11-01T04:00:30.029Z,12.93
2022-11-01T04:02:57.664Z,12.91
2022-11-01T04:05:26.692Z,12.90
2022-11-01T04:07:53.972Z,12.91
2022-11-01T04:10:25.161Z,12.91
2022-11-01T04:12:53.014Z,12.90
2022-11-01T04:15:40.301Z,12.91
2022-11-01T04:18:32.849Z,12.90
2022-11-01T04:21:03.402Z,12.95
2022-11-01T04:23:30.452Z,12.97
2022-11-01T04:25:57.278Z,12.99
2022-11-01T04:28:24.021Z,13.04
2022-11-01T04:30:51.248Z,12.99
2022-11-01T04:33:18.064Z,12.96
2022-11-01T04:35:45.379Z,12.93
2022-11-01T04:38:12.946Z,12.99
2022-11-01T04:40:41.030Z,13.02
2022-11-01T04:43:07.891Z,13.03
2022-11-01T04:45:34.579Z,13.05
2022-11-01T04:48:04.122Z,13.10
2022-11-01T04:50:31.149Z,13.04
2022-11-01T04:53:00.148Z,13.08
2022-11-01T04:55:28.035Z,13.08
2022-11-01T04:57:54.926Z,13.10
2022-11-01T05:00:23.083Z,13.12
2022-11-01T05:02:50.227Z,13.15
2022-11-01T05:05:17.461Z,13.16
2022-11-01T05:07:44.358Z,13.16
2022-11-01T05:10:11.883Z,13.19
2022-11-01T05:12:38.617Z,13.23
2022-11-01T05:15:06.236Z,13.18
2022-11-01T05:17:32.983Z,13.21
2022-11-01T05:19:59.640Z,13.20
2022-11-01T05:22:26.383Z,13.20
2022-11-01T05:24:53.475Z,13.20
2022-11-01T05:27:20.151Z,13.23
2022-11-01T05:29:46.855Z,13.24
2022-11-01T05:32:13.495Z,13.23
2022-11-01T05:34:40.149Z,13.25
2022-11-01T05:37:06.857Z,13.25
2022-11-01T05:39:33.559Z,13.31
2022-11-01T05:42:02.905Z,13.30
2022-11-01T05:44:29.818Z,13.31
2022-11-01T05:46:56.539Z,13.33
2022-11-01T05:49:24.577Z,13.35
2022-11-01T05:51:51.279Z,13.27
2022-11-01T05:54:17.903Z,13.32
2022-11-01T05:56:44.644Z,13.31
2022-11-01T05:59:11.374Z,13.33
2022-11-01T06:01:41.428Z,13.36
2022-11-01T06:04:08.506Z,13.35
2022-11-01T06:06:35.297Z,13.40
2022-11-01T06:09:02.983Z,13.43
2022-11-01T06:11:29.875Z,13.40
2022-11-01T06:13:58.112Z,13.40
2022-11-01T06:16:26.299Z,13.44
2022-11-01T06:18:53.645Z,13.46
2022-11-01T06:21:26.045Z,13.44
2022-11-01T06:23:55.938Z,13.45
2022-11-01T06:26:22.557Z,13.50
2022-11-01T06:28:49.308Z,13.50
2022-11-01T06:31:16.302Z,13.51
2022-11-01T06:33:42.980Z,13.54
2022-11-01T06:36:09.813Z,13.56
2022-11-01T06:38:36.534Z,13.63
2022-11-01T06:41:03.250Z,13.61
2022-11-01T06:43:29.918Z,13.64
2022-11-01T06:46:00.637Z,13.62
2022-11-01T06:48:28.617Z,13.67
2022-11-01T06:50:55.986Z,13.61
2022-11-01T06:53:23.860Z,13.64
2022-11-01T06:55:52.242Z,13.70
2022-11-01T06:58:20.501Z,13.68
2022-11-01T07:00:47.281Z,13.71
2022-11-01T07:03:14.859Z,13.66
2022-11-01T07:05:42.097Z,13.74
2022-11-01T07:08:12.753Z,13.73
2022-11-01T07:10:43.182Z,13.73
2022-11-01T07:13:12.691Z,13.71
2022-11-01T07:15:39.586Z,13.79
2022-11-01T07:18:08.764Z,13.76
2022-11-01T07:20:41.878Z,13.89
2022-11-01T07:23:14.418Z,13.91
2022-11-01T07:25:41.721Z,13.85
2022-11-01T07:28:09.039Z,13.91
2022-11-01T07:30:35.974Z,13.99
2022-11-01T07:33:04.884Z,13.96
2022-11-01T07:35:31.972Z,14.00
2022-11-01T07:38:01.148Z,14.00
2022-11-01T07:40:29.962Z,14.07
2022-11-01T07:42:59.863Z,14.07
2022-11-01T07:45:28.905Z,14.10
2022-11-01T07:48:07.022Z,14.19
2022-11-01T07:50:34.538Z,14.12
2022-11-01T07:53:05.612Z,14.30
2022-11-01T07:55:32.805Z,14.34
2022-11-01T07:58:00.012Z,14.34
2022-11-01T08:00:26.946Z,14.35
2022-11-01T08:03:01.253Z,14.33
2022-11-01T08:05:28.871Z,14.39
2022-11-01T08:07:55.834Z,14.40
2022-11-01T08:10:22.574Z,14.45
2022-11-01T08:12:49.276Z,14.44
2022-11-01T08:15:16.250Z,14.39
2022-11-01T08:17:42.982Z,14.41
2022-11-01T08:20:10.461Z,14.45
2022-11-01T08:22:43.042Z,14.44
2022-11-01T08:25:09.953Z,14.49
2022-11-01T08:27:36.737Z,14.47
2022-11-01T08:30:04.049Z,14.57
2022-11-01T08:32:30.815Z,14.51
2022-11-01T08:34:57.484Z,14.63
2022-11-01T08:37:24.177Z,14.58
2022-11-01T08:39:50.760Z,14.58
2022-11-01T08:42:17.518Z,14.58
2022-11-01T08:44:44.211Z,14.64
2022-11-01T08:47:11.601Z,14.73
2022-11-01T08:49:38.282Z,14.73
2022-11-01T08:52:05.950Z,14.63
2022-11-01T08:54:34.220Z,14.59
2022-11-01T08:57:02.629Z,14.64
2022-11-01T08:59:29.519Z,14.60
2022-11-01T09:01:56.353Z,14.66
2022-11-01T09:04:23.118Z,14.58
2022-11-01T09:06:49.755Z,14.53
2022-11-01T09:09:16.496Z,14.51
2022-11-01T09:11:43.175Z,14.51
2022-11-01T09:14:09.974Z,14.52
2022-11-01T09:16:36.601Z,14.43
2022-11-01T09:19:03.480Z,14.51
2022-11-01T09:21:32.049Z,14.50
2022-11-01T09:23:59.216Z,14.44
2022-11-01T09:26:29.196Z,14.48
2022-11-01T09:28:58.833Z,14.51
2022-11-01T09:31:26.026Z,14.55
2022-11-01T09:33:55.115Z,14.56
2022-11-01T09:36:22.008Z,14.67
2022-11-01T09:38:48.753Z,14.69
2022-11-01T09:41:24.309Z,14.78
2022-11-01T09:43:53.213Z,14.82
2022-11-01T09:46:25.797Z,14.82
2022-11-01T09:48:55.444Z,14.98
2022-11-01T09:51:24.203Z,14.96
2022-11-01T09:53:54.185Z,14.98
2022-11-01T09:56:30.454Z,15.04
2022-11-01T09:59:21.543Z,15.32
2022-11-01T10:02:19.010Z,15.62
2022-11-01T10:05:13.193Z,15.71
2022-11-01T10:08:15.260Z,15.69
2022-11-01T10:10:57.483Z,15.61
2022-11-01T10:13:52.063Z,15.67
2022-11-01T10:16:43.959Z,15.69
2022-11-01T10:19:17.609Z,15.52
2022-11-01T10:21:46.714Z,15.58
2022-11-01T10:24:31.799Z,15.62
2022-11-01T10:27:34.603Z,15.67
2022-11-01T10:30:04.541Z,15.74
2022-11-01T10:32:34.934Z,15.81
2022-11-01T10:35:12.320Z,15.95
2022-11-01T10:38:03.998Z,15.90
2022-11-01T10:41:04.019Z,16.02
2022-11-01T10:43:34.732Z,16.28
2022-11-01T10:46:03.884Z,16.31
2022-11-01T10:48:38.341Z,16.47
2022-11-01T10:51:07.835Z,16.57
2022-11-01T10:53:45.798Z,16.57
2022-11-01T10:56:23.003Z,16.50
2022-11-01T10:59:06.058Z,16.54
2022-11-01T11:01:39.127Z,16.98
2022-11-01T11:04:11.380Z,17.17
2022-11-01T11:06:40.274Z,16.99
2022-11-01T11:09:08.572Z,17.09
2022-11-01T11:11:40.841Z,16.82
2022-11-01T11:14:09.978Z,16.87
2022-11-01T11:16:44.625Z,16.67
2022-11-01T11:19:12.086Z,16.67
2022-11-01T11:21:38.856Z,16.63
2022-11-01T11:24:05.874Z,16.62
2022-11-01T11:26:39.182Z,16.60
2022-11-01T11:29:06.182Z,16.46
2022-11-01T11:31:34.861Z,16.50
2022-11-01T11:34:23.728Z,16.51
2022-11-01T11:36:53.592Z,16.51
2022-11-01T11:39:25.148Z,16.51
2022-11-01T11:41:51.943Z,16.59
2022-11-01T11:44:39.402Z,16.76
2022-11-01T11:47:21.260Z,16.75
2022-11-01T11:49:50.305Z,17.01
2022-11-01T11:52:22.463Z,17.17
2022-11-01T11:54:53.959Z,17.25
2022-11-01T11:57:26.779Z,17.26
2022-11-01T12:00:06.033Z,17.30
2022-11-01T12:02:38.575Z,17.31
2022-11-01T12:05:16.074Z,17.43
2022-11-01T12:07:52.500Z,17.06
2022-11-01T12:10:38.826Z,17.15
2022-11-01T12:13:33.486Z,17.05
2022-11-01T12:16:24.425Z,17.18
2022-11-01T12:19:00.937Z,17.08
2022-11-01T12:21:35.896Z,17.15
2022-11-01T12:24:23.986Z,17.07
2022-11-01T12:26:54.187Z,16.99
2022-11-01T12:29:27.015Z,16.90
2022-11-01T12:31:57.333Z,16.86
2022-11-01T12:34:31.006Z,16.96
2022-11-01T12:37:03.085Z,16.90
2022-11-01T12:39:57.451Z,16.93
2022-11-01T12:42:28.693Z,16.87
2022-11-01T12:45:15.445Z,16.94
2022-11-01T12:47:48.284Z,16.79
2022-11-01T12:50:26.729Z,16.85
2022-11-01T12:53:17.540Z,16.81
2022-11-01T12:55:44.308Z,16.76
2022-11-01T12:58:15.964Z,16.91
2022-11-01T13:01:06.511Z,17.21
2022-11-01T13:03:58.060Z,17.66
2022-11-01T13:06:43.641Z,18.14
2022-11-01T13:09:32.473Z,18.56
2022-11-01T13:12:10.185Z,18.43
2022-11-01T13:14:43.124Z,18.67
2022-11-01T13:17:16.800Z,19.03
2022-11-01T13:19:59.240Z,19.37
2022-11-01T13:22:51.119Z,19.29
2022-11-01T13:25:31.119Z,19.32
2022-11-01T13:28:17.248Z,18.77
2022-11-01T13:30:54.893Z,18.67
2022-11-01T13:33:41.282Z,18.46
2022-11-01T13:36:31.469Z,18.33
2022-11-01T13:39:15.053Z,18.57
2022-11-01T13:41:59.787Z,18.43
2022-11-01T13:44:32.383Z,18.53
2022-11-01T13:47:20.646Z,18.37
2022-11-01T13:50:18.342Z,18.43
2022-11-01T13:52:57.856Z,18.13
2022-11-01T13:55:38.083Z,17.97
2022-11-01T13:58:08.450Z,17.99
2022-11-01T14:00:48.878Z,17.99
2022-11-01T14:03:25.470Z,17.92
2022-11-01T14:06:33.240Z,17.90
2022-11-01T14:09:19.457Z,18.00
2022-11-01T14:11:50.007Z,18.06
2022-11-01T14:14:32.071Z,18.05
2022-11-01T14:17:20.575Z,18.18
2022-11-01T14:19:48.395Z,18.17
2022-11-01T14:22:28.334Z,18.08
2022-11-01T14:24:59.676Z,18.06
2022-11-01T14:27:32.196Z,17.83
2022-11-01T14:29:58.926Z,17.65
2022-11-01T14:32:29.813Z,17.53
2022-11-01T14:35:33.841Z,17.05
2022-11-01T14:38:05.039Z,16.82
2022-11-01T14:40:54.050Z,16.72
2022-11-01T14:43:42.956Z,16.69
2022-11-01T14:46:15.931Z,16.71
2022-11-01T14:48:49.297Z,16.55
2022-11-01T14:51:30.712Z,16.54
2022-11-01T14:54:13.482Z,16.39
2022-11-01T14:56:41.324Z,16.35
2022-11-01T14:59:20.388Z,16.30
2022-11-01T15:01:50.147Z,16.28
2022-11-01T15:04:27.386Z,16.19
2022-11-01T15:06:53.981Z,16.14
2022-11-01T15:09:24.263Z,16.10
2022-11-01T15:11:53.708Z,16.00
2022-11-01T15:14:35.362Z,15.90
2022-11-01T15:17:02.215Z,15.73
2022-11-01T15:19:36.122Z,15.77
2022-11-01T15:22:03.668Z,15.58
2022-11-01T15:24:33.456Z,15.54
2022-11-01T15:27:08.527Z,15.40
2022-11-01T15:29:36.502Z,15.19
2022-11-01T15:32:04.075Z,15.26
2022-11-01T15:34:34.338Z,15.06
2022-11-01T15:37:18.478Z,14.87
2022-11-01T15:39:45.201Z,14.81
2022-11-01T15:42:16.721Z,14.60
2022-11-01T15:44:46.086Z,14.49
2022-11-01T15:47:21.152Z,14.53
2022-11-01T15:49:51.227Z,14.32
2022-11-01T15:52:24.010Z,14.34
2022-11-01T15:55:06.950Z,14.22
2022-11-01T15:57:41.634Z,14.06
2022-11-01T16:00:18.811Z,14.04
2022-11-01T16:02:49.860Z,13.94
2022-11-01T16:05:20.691Z,13.79
2022-11-01T16:07:48.683Z,13.71
2022-11-01T16:10:30.214Z,13.51
2022-11-01T16:12:59.883Z,13.40
2022-11-01T16:15:34.467Z,13.32
2022-11-01T16:18:13.980Z,13.17
2022-11-01T16:20:41.305Z,13.06
2022-11-01T16:23:12.612Z,12.89
2022-11-01T16:25:39.868Z,12.84
2022-11-01T16:28:09.530Z,12.80
2022-11-01T16:30:39.312Z,12.74
2022-11-01T16:33:25.122Z,12.60
2022-11-01T16:36:20.511Z,12.46
2022-11-01T16:38:51.982Z,12.35
2022-11-01T16:41:37.951Z,12.27
2022-11-01T16:44:16.820Z,12.20
2022-11-01T16:46:44.279Z,12.26
2022-11-01T16:49:14.124Z,12.15
2022-11-01T16:51:41.346Z,12.10
2022-11-01T16:54:12.778Z,12.11
2022-11-01T16:56:52.891Z,11.98
2022-11-01T16:59:23.791Z,12.20
2022-11-01T17:01:52.292Z,11.93
2022-11-01T17:04:19.532Z,11.89
2022-11-01T17:06:46.455Z,11.92
2022-11-01T17:09:15.300Z,11.90
2022-11-01T17:11:47.848Z,11.83
2022-11-01T17:14:18.432Z,11.91
2022-11-01T17:16:47.597Z,11.87
2022-11-01T17:19:25.888Z,11.87
2022-11-01T17:21:53.801Z,11.82
2022-11-01T17:24:24.382Z,11.81
2022-11-01T17:26:52.492Z,11.82
2022-11-01T17:29:19.375Z,11.73
2022-11-01T17:31:46.171Z,11.69
2022-11-01T17:34:12.964Z,11.64
2022-11-01T17:36:43.691Z,11.57
2022-11-01T17:39:11.158Z,11.49
2022-11-01T17:41:38.023Z,11.41
2022-11-01T17:44:04.942Z,11.42
2022-11-01T17:46:31.676Z,11.42
2022-11-01T17:48:58.561Z,11.52
2022-11-01T17:51:25.364Z,11.52
2022-11-01T17:53:55.781Z,11.52
2022-11-01T17:56:24.010Z,11.75
2022-11-01T17:58:53.714Z,11.59
2022-11-01T18:01:21.992Z,11.48
2022-11-01T18:03:49.277Z,11.40
2022-11-01T18:06:16.556Z,11.31
2022-11-01T18:08:46.656Z,11.30
2022-11-01T18:11:44.658Z,11.20
2022-11-01T18:14:35.872Z,11.02
2022-11-01T18:17:17.483Z,10.88
2022-11-01T18:20:09.330Z,10.78
2022-11-01T18:22:53.386Z,10.79
2022-11-01T18:25:30.636Z,10.78
2022-11-01T18:28:01.454Z,10.72
2022-11-01T18:30:28.432Z,10.73
2022-11-01T18:33:02.886Z,10.68
2022-11-01T18:35:44.368Z,10.65
2022-11-01T18:38:17.956Z,10.62
2022-11-01T18:41:01.417Z,10.63
2022-11-01T18:43:39.301Z,10.59
2022-11-01T18:46:26.396Z,10.62
2022-11-01T18:49:00.551Z,10.54
2022-11-01T18:51:30.114Z,10.60
2022-11-01T18:54:09.331Z,10.51
2022-11-01T18:56:40.313Z,10.54
2022-11-01T18:59:19.445Z,10.45
2022-11-01T19:01:50.567Z,10.43
2022-11-01T19:04:22.066Z,10.51
2022-11-01T19:06:49.056Z,10.44
2022-11-01T19:09:29.578Z,10.36
2022-11-01T19:12:14.152Z,10.34
2022-11-01T19:14:43.061Z,10.30
2022-11-01T19:17:27.103Z,10.22
2022-11-01T19:19:56.186Z,10.28
2022-11-01T19:22:29.187Z,10.50
2022-11-01T19:24:56.022Z,10.44
2022-11-01T19:27:23.220Z,10.53
2022-11-01T19:29:57.604Z,10.25
2022-11-01T19:32:25.404Z,10.29
2022-11-01T19:34:54.104Z,10.25
2022-11-01T19:37:33.169Z,10.11
2022-11-01T19:40:12.955Z,10.00
2022-11-01T19:42:39.813Z,9.97
2022-11-01T19:45:25.824Z,9.92
2022-11-01T19:47:52.686Z,9.85
2022-11-01T19:50:25.182Z,9.86
2022-11-01T19:52:56.437Z,9.93
2022-11-01T19:55:51.971Z,10.09
2022-11-01T19:58:22.665Z,9.93
2022-11-01T20:00:49.797Z,9.90
2022-11-01T20:03:44.392Z,9.99
2022-11-01T20:06:15.557Z,10.04
2022-11-01T20:08:45.080Z,9.91
2022-11-01T20:11:13.070Z,9.93
2022-11-01T20:13:40.397Z,10.00
2022-11-01T20:16:07.667Z,10.01
2022-11-01T20:18:34.566Z,10.06
2022-11-01T20:21:05.931Z,10.05
2022-11-01T20:23:34.051Z,10.11
2022-11-01T20:26:02.020Z,10.00
2022-11-01T20:28:28.750Z,10.03
2022-11-01T20:30:56.081Z,9.86
2022-11-01T20:33:24.198Z,9.94
2022-11-01T20:35:51.343Z,9.85
2022-11-01T20:40:50.101Z,9.81
2022-11-01T20:43:16.847Z,9.64
2022-11-01T20:45:43.517Z,9.61
2022-11-01T20:48:10.221Z,9.81
2022-11-01T20:50:36.947Z,9.78
2022-11-01T20:53:05.606Z,9.62
2022-11-01T20:55:33.744Z,9.77
2022-11-01T20:58:00.586Z,9.55
2022-11-01T21:00:31.799Z,9.61
2022-11-01T21:03:01.023Z,9.46
2022-11-01T21:05:29.921Z,9.30
2022-11-01T21:08:14.963Z,9.20
2022-11-01T21:10:43.275Z,9.18
2022-11-01T21:13:22.295Z,9.26
2022-11-01T21:15:49.491Z,9.47
2022-11-01T21:18:16.301Z,9.60
2022-11-01T21:20:47.853Z,9.70
2022-11-01T21:23:35.577Z,9.68
2022-11-01T21:26:11.687Z,9.64
2022-11-01T21:28:40.012Z,9.84
2022-11-01T21:31:09.831Z,9.84
2022-11-01T21:33:43.732Z,9.90
2022-11-01T21:36:34.967Z,9.95
2022-11-01T21:39:25.418Z,10.08
2022-11-01T21:42:03.579Z,10.05
2022-11-01T21:44:45.478Z,10.08
2022-11-01T21:47:29.832Z,10.06
2022-11-01T21:49:56.750Z,10.15
2022-11-01T21:52:23.557Z,10.06
2022-11-01T21:54:50.904Z,10.08
2022-11-01T21:57:17.635Z,10.14
2022-11-01T21:59:44.593Z,10.05
2022-11-01T22:02:13.269Z,10.08
2022-11-01T22:04:40.818Z,9.98
2022-11-01T22:07:08.720Z,10.03
2022-11-01T22:09:35.948Z,9.96
2022-11-01T22:12:03.471Z,10.00
2022-11-01T22:14:30.469Z,9.95
2022-11-01T22:16:57.205Z,9.82
2022-11-01T22:19:24.230Z,9.75
2022-11-01T22:21:50.955Z,9.80
2022-11-01T22:24:17.606Z,9.76
2022-11-01T22:26:44.353Z,9.79
2022-11-01T22:29:11.080Z,9.80
2022-11-01T22:31:37.910Z,9.81
2022-11-01T22:34:04.843Z,9.80
2022-11-01T22:36:39.333Z,9.86
2022-11-01T22:39:18.381Z,9.81
2022-11-01T22:41:45.266Z,9.81
2022-11-01T22:44:14.534Z,9.70
2022-11-01T22:47:27.092Z,9.91
2022-11-01T22:49:56.004Z,9.78
2022-11-01T22:52:22.686Z,9.91
2022-11-01T22:54:58.754Z,9.90
2022-11-01T22:57:28.899Z,9.96
2022-11-01T23:00:15.883Z,9.90
2022-11-01T23:02:42.958Z,9.83
2022-11-01T23:05:10.387Z,9.84
2022-11-01T23:07:42.985Z,9.91
2022-11-01T23:10:25.084Z,9.90
2022-11-01T23:13:16.935Z,9.82
2022-11-01T23:15:45.699Z,9.68
2022-11-01T23:18:15.650Z,9.75
2022-11-01T23:20:43.269Z,9.66
2022-11-01T23:23:19.832Z,9.54
2022-11-01T23:25:47.392Z,9.55
2022-11-01T23:28:15.063Z,9.49
2022-11-01T23:30:43.500Z,9.41
2022-11-01T23:33:15.352Z,9.52
2022-11-01T23:35:44.029Z,9.61
2022-11-01T23:39:00.544Z,9.60
2022-11-01T23:41:34.875Z,9.39
2022-11-01T23:44:10.760Z,9.45
2022-11-01T23:46:37.462Z,9.48
2022-11-01T23:49:23.558Z,9.27
2022-11-01T23:51:50.931Z,9.21
2022-11-01T23:54:35.024Z,9.29
2022-11-01T23:57:02.112Z,9.23
2022-11-01T23:59:28.933Z,9.02
